Hlavní strana
METAR-TAF:

METAR-TAF

Letiště :

Stockholm-Arlanda, Švédsko

zeměpisná šířka: 59-39N, zeměpisná délka: 017-57E, výška: 38 m

Aktuální stav počasí

Zpráva byla vytvořena před 42 minutami, v 14:50 UTC
Západní vítr 9 kt
Teplota 9°C
Vlhkost vzduchu 66%
Tlak 1015 hPa
Viditelnost 10 km a více
Skoro jasno ve výšce 3000 ft

METAR: ESSA 201450Z 27009KT 9999 FEW030 09/03 Q1015 R01L/29//95 R08/29//95 R01R/29//95 NOSIG

Čas: 16:32 (15:32 UTC)

Předpověď počasí

Zpráva byla vytvořena před 4 hodinami a 2 minutami, v 11:30 UTC
Předpověď platná od 20 v 12 UTC do 21 v 12 UTC
Západní vítr 10 kt
Viditelnost 10 km a více
Oblačno až skoro zataženo ve výšce 900 ft
Změna
od 20 v 12 UTC do 20 v 14 UTC
Pravděpodobnost 40%
od 21 v 00 UTC do 21 v 08 UTC
Viditelnost: 4000 m
kouřmo
Pravděpodobnost 40%
od 21 v 08 UTC do 21 v 12 UTC
Viditelnost: 2500 m
Oblačno až skoro zataženo ve výšce 400 ft
mrholení

TAF: ESSA 201130Z 2012/2112 26010KT 9999 BKN009 BECMG 2012/2014 NSC PROB40 2100/2108 4000 BR PROB40 2108/2112 2500 DZ BKN004

Stav a předpovědi počasí z více než 4 000 letišť (zprávy METAR a TAF).

Červené a žluté tečky na mapě představují dostupné meteorologické stanice.

Když kurzor umístíte na tečku, zobrazí se název stanice.

Pak kliknutím zobrazíte stav a předpověď počasí.

Chcete-li změnit mapu, kliknutím na zelené tlačítko se znaménkem +mapu přiblížíte, kliknutím na zelené tlačítko se znaménkem – mapu oddálíte a kliknutím na zelené šipky přejdete na sousední mapy.


METAR-TAF: